createdAt,value
2019-05-21T00:01:54.133Z,99.90
2019-05-21T00:06:04.330Z,99.90
2019-05-21T00:10:14.965Z,99.90
2019-05-21T00:14:25.206Z,99.90
2019-05-21T00:18:35.430Z,99.90
2019-05-21T00:22:45.766Z,99.90
2019-05-21T00:26:56.081Z,99.90
2019-05-21T00:31:43.333Z,99.90
2019-05-21T00:36:31.837Z,99.90
2019-05-21T00:41:18.246Z,99.90
2019-05-21T00:45:28.543Z,99.90
2019-05-21T00:49:39.316Z,99.90
2019-05-21T00:53:49.653Z,99.90
2019-05-21T00:58:00.056Z,99.90
2019-05-21T01:02:10.375Z,99.90
2019-05-21T01:06:20.796Z,99.90
2019-05-21T01:10:31.130Z,99.90
2019-05-21T01:14:41.475Z,99.90
2019-05-21T01:18:51.877Z,99.90
2019-05-21T01:23:02.232Z,99.90
2019-05-21T01:27:12.528Z,99.90
2019-05-21T01:31:23.611Z,99.90
2019-05-21T01:35:33.917Z,99.90
2019-05-21T01:39:44.285Z,99.90
2019-05-21T01:43:54.632Z,99.90
2019-05-21T01:48:04.957Z,99.90
2019-05-21T01:52:15.255Z,99.90
2019-05-21T01:56:26.502Z,99.90
2019-05-21T02:00:39.112Z,99.90
2019-05-21T02:04:50.299Z,99.90
2019-05-21T02:09:02.260Z,99.90
2019-05-21T02:13:12.802Z,99.90
2019-05-21T02:17:23.144Z,99.90
2019-05-21T02:21:33.590Z,99.90
2019-05-21T02:25:43.908Z,99.90
2019-05-21T02:29:54.273Z,99.90
2019-05-21T02:34:04.682Z,99.90
2019-05-21T02:38:15.099Z,99.90
2019-05-21T02:42:25.612Z,99.90
2019-05-21T02:46:35.921Z,99.90
2019-05-21T02:50:46.221Z,99.90
2019-05-21T02:54:56.571Z,99.90
2019-05-21T02:59:06.814Z,99.90
2019-05-21T03:03:20.122Z,99.90
2019-05-21T03:07:30.623Z,99.90
2019-05-21T03:11:41.101Z,99.90
2019-05-21T03:15:51.469Z,99.90
2019-05-21T03:20:01.776Z,99.90
2019-05-21T03:24:12.556Z,99.90
2019-05-21T03:28:22.906Z,99.90
2019-05-21T03:32:33.260Z,99.90
2019-05-21T03:36:43.551Z,99.90
2019-05-21T03:40:54.043Z,99.90
2019-05-21T03:45:07.937Z,99.90
2019-05-21T03:49:18.101Z,99.90
2019-05-21T03:53:28.369Z,99.90
2019-05-21T03:57:38.899Z,99.90
2019-05-21T04:01:49.293Z,99.90
2019-05-21T04:05:59.706Z,99.60
2019-05-21T04:10:14.838Z,99.20
2019-05-21T04:14:32.384Z,98.20
2019-05-21T04:18:59.201Z,96.20
2019-05-21T04:23:09.526Z,95.40
2019-05-21T04:27:20.665Z,93.50
2019-05-21T04:31:30.884Z,92.80
2019-05-21T04:35:41.756Z,94.40
2019-05-21T04:39:52.088Z,95.30
2019-05-21T04:44:02.414Z,96.00
2019-05-21T04:48:12.750Z,96.20
2019-05-21T04:52:23.060Z,96.40
2019-05-21T04:56:33.266Z,96.50
2019-05-21T05:00:46.205Z,96.80
2019-05-21T05:04:57.835Z,96.70
2019-05-21T05:09:08.025Z,96.50
2019-05-21T05:13:18.373Z,96.50
2019-05-21T05:17:28.743Z,96.80
2019-05-21T05:21:39.036Z,96.90
2019-05-21T05:25:49.347Z,97.10
2019-05-21T05:29:59.585Z,97.20
2019-05-21T05:34:09.990Z,97.70
2019-05-21T05:38:20.341Z,98.00
2019-05-21T05:42:30.681Z,98.20
2019-05-21T05:46:41.001Z,98.20
2019-05-21T05:50:52.958Z,98.00
2019-05-21T05:55:04.982Z,97.90
2019-05-21T05:59:17.817Z,97.40
2019-05-21T06:03:28.349Z,96.30
2019-05-21T06:07:40.032Z,95.50
2019-05-21T06:11:50.900Z,93.50
2019-05-21T06:16:01.208Z,91.90
2019-05-21T06:20:12.450Z,90.80
2019-05-21T06:24:22.762Z,88.20
2019-05-21T06:28:33.102Z,87.30
2019-05-21T06:32:44.710Z,83.40
2019-05-21T06:36:55.098Z,80.30
2019-05-21T06:41:06.261Z,76.40
2019-05-21T06:45:17.010Z,74.80
2019-05-21T06:49:27.371Z,72.10
2019-05-21T06:53:37.722Z,70.20
2019-05-21T06:57:49.144Z,71.70
2019-05-21T07:01:59.471Z,69.40
2019-05-21T07:06:09.882Z,69.00
2019-05-21T07:10:20.377Z,69.50
2019-05-21T07:14:30.681Z,68.80
2019-05-21T07:18:42.288Z,67.70
2019-05-21T07:22:52.721Z,67.20
2019-05-21T07:27:04.287Z,65.50
2019-05-21T07:31:17.375Z,64.90
2019-05-21T07:35:27.133Z,66.00
2019-05-21T07:39:39.195Z,65.00
2019-05-21T07:43:49.537Z,65.10
2019-05-21T07:47:59.879Z,64.60
2019-05-21T07:52:10.295Z,63.10
2019-05-21T07:56:22.354Z,62.00
2019-05-21T08:00:32.662Z,63.00
2019-05-21T08:04:45.301Z,63.00
2019-05-21T08:09:11.409Z,62.50
2019-05-21T08:13:08.919Z,63.00
2019-05-21T08:17:19.230Z,62.20
2019-05-21T08:21:31.101Z,61.60
2019-05-21T08:25:41.491Z,59.40
2019-05-21T08:29:51.798Z,58.20
2019-05-21T08:34:02.129Z,60.90
2019-05-21T08:38:12.503Z,60.40
2019-05-21T08:42:24.389Z,60.00
2019-05-21T08:46:34.726Z,61.60
2019-05-21T08:50:45.104Z,63.40
2019-05-21T08:54:56.686Z,61.90
2019-05-21T08:59:07.067Z,61.20
2019-05-21T09:03:17.403Z,59.00
2019-05-21T09:07:27.736Z,58.10
2019-05-21T09:11:38.264Z,56.10
2019-05-21T09:15:48.626Z,53.20
2019-05-21T09:19:59.105Z,53.50
2019-05-21T09:24:09.500Z,53.70
2019-05-21T09:28:20.634Z,54.80
2019-05-21T09:32:32.353Z,53.80
2019-05-21T09:36:42.720Z,52.20
2019-05-21T09:40:56.534Z,52.30
2019-05-21T09:45:08.561Z,51.40
2019-05-21T09:49:18.792Z,53.90
2019-05-21T09:53:29.047Z,55.50
2019-05-21T09:57:44.013Z,54.40
2019-05-21T10:01:56.010Z,53.00
2019-05-21T10:06:06.390Z,51.80
2019-05-21T10:10:16.693Z,51.90
2019-05-21T10:14:27.357Z,49.70
2019-05-21T10:18:37.709Z,48.80
2019-05-21T10:22:48.145Z,49.50
2019-05-21T10:27:03.185Z,49.80
2019-05-21T10:31:11.705Z,50.20
2019-05-21T10:35:21.945Z,50.40
2019-05-21T10:39:32.305Z,49.80
2019-05-21T10:43:42.728Z,49.30
2019-05-21T10:47:53.435Z,48.90
2019-05-21T10:52:03.872Z,50.00
2019-05-21T10:56:14.241Z,51.40
2019-05-21T11:00:25.855Z,50.40
2019-05-21T11:04:55.832Z,47.90
2019-05-21T11:09:09.116Z,48.60
2019-05-21T11:13:20.436Z,48.60
2019-05-21T11:17:31.317Z,49.40
2019-05-21T11:21:41.764Z,48.60
2019-05-21T11:25:52.127Z,48.60
2019-05-21T11:30:04.165Z,50.20
2019-05-21T11:34:14.655Z,48.90
2019-05-21T11:38:39.051Z,49.00
2019-05-21T11:42:37.922Z,49.30
2019-05-21T11:46:48.376Z,49.90
2019-05-21T11:50:59.547Z,50.40
2019-05-21T11:55:10.189Z,50.00
2019-05-21T11:59:21.043Z,48.50
2019-05-21T12:03:31.459Z,46.50
2019-05-21T12:07:42.020Z,46.20
2019-05-21T12:11:52.264Z,45.20
2019-05-21T12:16:02.572Z,44.90
2019-05-21T12:20:13.427Z,46.90
2019-05-21T12:24:27.311Z,48.40
2019-05-21T12:28:35.703Z,48.90
2019-05-21T12:32:46.050Z,49.20
2019-05-21T12:36:56.350Z,50.20
2019-05-21T12:41:06.670Z,50.10
2019-05-21T12:45:17.888Z,49.50
2019-05-21T12:49:28.249Z,50.20
2019-05-21T12:53:38.577Z,49.70
2019-05-21T12:57:48.937Z,48.60
2019-05-21T13:01:59.288Z,47.60
2019-05-21T13:06:09.850Z,46.70
2019-05-21T13:10:20.248Z,46.00
2019-05-21T13:14:32.162Z,46.10
2019-05-21T13:18:42.520Z,45.90
2019-05-21T13:22:52.899Z,46.60
2019-05-21T13:27:03.220Z,46.50
2019-05-21T13:31:13.573Z,46.80
2019-05-21T13:35:24.098Z,46.60
2019-05-21T13:39:48.734Z,44.90
2019-05-21T13:43:46.560Z,45.90
2019-05-21T13:47:56.903Z,45.90
2019-05-21T13:52:07.307Z,47.10
2019-05-21T13:56:17.660Z,47.20
2019-05-21T14:00:39.399Z,48.40
2019-05-21T14:04:50.533Z,49.10
2019-05-21T14:09:00.924Z,50.70
2019-05-21T14:13:11.498Z,50.90
2019-05-21T14:17:21.899Z,50.50
2019-05-21T14:21:32.202Z,50.30
2019-05-21T14:25:44.064Z,50.50
2019-05-21T14:29:54.872Z,50.70
2019-05-21T14:34:06.811Z,51.40
2019-05-21T14:38:18.144Z,52.00
2019-05-21T14:42:28.466Z,51.80
2019-05-21T14:46:39.006Z,50.90
2019-05-21T14:50:49.302Z,50.90
2019-05-21T14:54:59.736Z,54.10
2019-05-21T14:59:10.179Z,56.00
2019-05-21T15:03:25.363Z,55.90
2019-05-21T15:07:32.857Z,55.30
2019-05-21T15:11:43.175Z,55.70
2019-05-21T15:15:53.463Z,56.50
2019-05-21T15:20:08.153Z,56.70
2019-05-21T15:24:18.443Z,57.40
2019-05-21T15:28:28.748Z,57.70
2019-05-21T15:32:40.540Z,58.00
2019-05-21T15:36:50.928Z,58.50
2019-05-21T15:41:10.285Z,58.30
2019-05-21T15:45:17.609Z,58.60
2019-05-21T15:49:36.432Z,58.30
2019-05-21T15:53:40.438Z,57.60
2019-05-21T15:57:50.757Z,57.00
2019-05-21T16:02:01.127Z,56.70
2019-05-21T16:06:11.594Z,56.40
2019-05-21T16:10:22.455Z,56.90
2019-05-21T16:14:33.030Z,56.20
2019-05-21T16:18:43.528Z,56.10
2019-05-21T16:22:54.527Z,56.30
2019-05-21T16:27:04.875Z,57.00
2019-05-21T16:31:15.209Z,57.80
2019-05-21T16:35:25.575Z,58.00
2019-05-21T16:39:37.545Z,58.30
2019-05-21T16:43:47.911Z,62.00
2019-05-21T16:47:58.229Z,67.90
2019-05-21T16:52:08.622Z,71.20
2019-05-21T16:56:19.946Z,73.90
2019-05-21T17:00:30.482Z,75.80
2019-05-21T17:04:40.821Z,76.70
2019-05-21T17:08:51.168Z,78.00
2019-05-21T17:13:01.553Z,79.20
2019-05-21T17:17:11.884Z,79.90
2019-05-21T17:21:22.211Z,80.80
2019-05-21T17:25:32.650Z,81.70
2019-05-21T17:29:43.067Z,83.00
2019-05-21T17:33:53.704Z,83.30
2019-05-21T17:38:04.440Z,83.40
2019-05-21T17:42:15.961Z,84.40
2019-05-21T17:46:28.432Z,84.20
2019-05-21T17:50:38.763Z,84.70
2019-05-21T17:54:56.711Z,85.00
2019-05-21T17:59:04.942Z,85.20
2019-05-21T18:03:16.100Z,85.80
2019-05-21T18:07:29.306Z,86.20
2019-05-21T18:11:40.293Z,86.70
2019-05-21T18:15:50.881Z,87.60
2019-05-21T18:20:01.775Z,88.20
2019-05-21T18:24:13.092Z,88.60
2019-05-21T18:28:23.384Z,88.70
2019-05-21T18:32:33.792Z,89.10
2019-05-21T18:36:45.108Z,90.10
2019-05-21T18:40:55.503Z,90.30
2019-05-21T18:45:08.413Z,90.50
2019-05-21T18:49:18.636Z,90.70
2019-05-21T18:53:29.064Z,90.80
2019-05-21T18:57:40.220Z,90.80
2019-05-21T19:01:51.188Z,91.00
2019-05-21T19:06:02.232Z,91.10
2019-05-21T19:10:13.278Z,91.10
2019-05-21T19:14:24.068Z,91.00
2019-05-21T19:18:34.324Z,91.10
2019-05-21T19:22:44.908Z,91.10
2019-05-21T19:26:55.196Z,91.10
2019-05-21T19:31:05.414Z,91.10
2019-05-21T19:35:15.859Z,91.10
2019-05-21T19:39:26.252Z,91.30
2019-05-21T19:43:37.348Z,91.40
2019-05-21T19:47:47.694Z,91.50
2019-05-21T19:51:58.025Z,91.60
2019-05-21T19:56:08.343Z,91.60
2019-05-21T20:00:24.166Z,91.60
2019-05-21T20:04:35.154Z,91.80
2019-05-21T20:08:45.911Z,92.00
2019-05-21T20:12:58.787Z,92.30
2019-05-21T20:17:10.238Z,92.40
2019-05-21T20:21:22.545Z,92.60
2019-05-21T20:25:34.365Z,92.70
2019-05-21T20:29:44.702Z,92.80
2019-05-21T20:33:55.514Z,93.00
2019-05-21T20:38:07.945Z,93.00
2019-05-21T20:42:21.384Z,93.00
2019-05-21T20:46:32.626Z,92.90
2019-05-21T20:50:44.537Z,93.00
2019-05-21T20:54:56.899Z,93.00
2019-05-21T20:59:08.766Z,93.00
2019-05-21T21:03:19.064Z,92.90
2019-05-21T21:07:31.078Z,92.90
2019-05-21T21:11:41.715Z,92.80
2019-05-21T21:15:52.164Z,92.80
2019-05-21T21:20:02.471Z,92.70
2019-05-21T21:24:13.480Z,92.70
2019-05-21T21:28:25.113Z,92.70
2019-05-21T21:32:35.787Z,92.60
2019-05-21T21:36:46.192Z,92.50
2019-05-21T21:40:56.619Z,92.50
2019-05-21T21:45:07.865Z,92.50
2019-05-21T21:49:20.186Z,92.50
2019-05-21T21:53:32.729Z,92.60
2019-05-21T21:57:43.574Z,92.80
2019-05-21T22:01:57.963Z,92.90
2019-05-21T22:06:10.299Z,93.10
2019-05-21T22:10:20.970Z,93.20
2019-05-21T22:14:49.244Z,93.40
2019-05-21T22:18:45.777Z,93.50
2019-05-21T22:22:58.682Z,93.60
2019-05-21T22:27:10.056Z,93.60
2019-05-21T22:31:20.577Z,93.80
2019-05-21T22:35:31.182Z,93.90
2019-05-21T22:39:43.614Z,93.90
2019-05-21T22:43:54.073Z,93.90
2019-05-21T22:48:04.514Z,93.90
2019-05-21T22:52:15.094Z,93.90
2019-05-21T22:56:25.461Z,94.00
2019-05-21T23:00:39.377Z,94.00
2019-05-21T23:04:52.096Z,93.90
2019-05-21T23:09:06.080Z,93.90
2019-05-21T23:13:16.451Z,93.70
2019-05-21T23:17:27.829Z,93.80
2019-05-21T23:21:39.514Z,93.90
2019-05-21T23:25:50.728Z,93.90
2019-05-21T23:30:01.644Z,94.00
2019-05-21T23:34:13.406Z,94.20
2019-05-21T23:38:25.191Z,94.20
2019-05-21T23:42:36.443Z,94.40
2019-05-21T23:46:46.844Z,94.90
2019-05-21T23:50:57.783Z,94.50
2019-05-21T23:55:09.125Z,94.60
2019-05-21T23:59:20.406Z,94.70
